Time;durP1;ratioP1;P1;durP2;ratioP2;P2;SDS_P1;SDS_P2;PMS_P1;PMS_P2;Temp;Humidity;BMP_temperature;BMP_pressure;BME280_temperature;BME280_humidity;BME280_pressure;Samples;Min_cycle;Max_cycle;Signal;HPM_P1;HPM_P2
2022/05/12 00:00:31;;;;;;;5.93;1.67;;;12.00;99.90;;;;;;5131073;27;20027;-64
2022/05/12 00:02:57;;;;;;;5.15;1.50;;;11.90;99.90;;;;;;5131084;27;20035;-63
2022/05/12 00:05:24;;;;;;;4.63;1.70;;;11.90;99.90;;;;;;5132794;27;20031;-63
2022/05/12 00:07:51;;;;;;;3.58;1.25;;;11.90;99.90;;;;;;5128669;27;20034;-64
2022/05/12 00:10:19;;;;;;;3.65;1.10;;;11.80;99.90;;;;;;5130378;27;20053;-63
2022/05/12 00:12:46;;;;;;;5.07;1.50;;;11.80;99.90;;;;;;5130190;27;20355;-63
2022/05/12 00:15:23;;;;;;;4.78;1.58;;;11.80;99.90;;;;;;5130674;27;20031;-64
2022/05/12 00:17:49;;;;;;;4.22;1.38;;;11.70;99.90;;;;;;5127673;27;20071;-63
2022/05/12 00:20:19;;;;;;;6.18;1.27;;;11.80;99.90;;;;;;5131403;27;20039;-63
2022/05/12 00:22:45;;;;;;;8.07;1.65;;;11.80;99.90;;;;;;5132156;27;20050;-63
2022/05/12 00:25:19;;;;;;;5.60;1.20;;;11.80;99.90;;;;;;5130919;27;20039;-63
2022/05/12 00:27:44;;;;;;;;;;;11.70;99.90;;;;;;5127813;27;20458;-63
2022/05/12 00:30:12;;;;;;;4.57;1.23;;;11.70;99.90;;;;;;5130275;27;19992;-63
2022/05/12 00:32:40;;;;;;;3.13;1.13;;;11.60;99.90;;;;;;5130347;27;20092;-63
2022/05/12 00:35:07;;;;;;;7.35;1.40;;;11.60;99.90;;;;;;5129816;27;20539;-63
2022/05/12 00:37:33;;;;;;;4.22;1.00;;;11.60;99.90;;;;;;5112667;27;20039;-63
2022/05/12 00:39:59;;;;;;;3.22;1.00;;;11.60;99.90;;;;;;5132018;27;20049;-64
2022/05/12 00:42:24;;;;;;;2.90;1.02;;;11.60;99.90;;;;;;5129745;27;20111;-63
2022/05/12 00:44:50;;;;;;;5.00;1.38;;;11.60;99.90;;;;;;5129312;27;20039;-63
2022/05/12 00:47:16;;;;;;;3.60;1.10;;;11.60;99.90;;;;;;5126299;27;20035;-63
2022/05/12 00:49:42;;;;;;;3.53;1.30;;;11.60;99.90;;;;;;5111002;27;20043;-63
2022/05/12 00:52:10;;;;;;;3.15;1.20;;;11.60;99.90;;;;;;5129954;27;20387;-63
2022/05/12 00:54:44;;;;;;;3.80;1.10;;;11.50;99.90;;;;;;5129494;27;20035;-63
2022/05/12 00:57:12;;;;;;;;;;;11.50;99.90;;;;;;5130460;27;20038;-63
2022/05/12 00:59:38;;;;;;;5.72;1.67;;;11.50;99.90;;;;;;5129657;27;19916;-63
2022/05/12 01:02:10;;;;;;;5.35;1.40;;;11.40;99.90;;;;;;5129577;27;20154;-63
2022/05/12 01:04:38;;;;;;;7.05;2.28;;;11.50;99.90;;;;;;5129600;27;20046;-63
2022/05/12 01:07:04;;;;;;;4.32;1.50;;;11.40;99.90;;;;;;5124766;27;20321;-63
2022/05/12 01:09:31;;;;;;;3.47;1.40;;;11.40;99.90;;;;;;5130470;28;20379;-64
2022/05/12 01:11:57;;;;;;;4.10;1.30;;;11.40;99.90;;;;;;5111781;28;20158;-64
2022/05/12 01:14:23;;;;;;;2.33;1.20;;;11.40;99.90;;;;;;5129015;28;20045;-63
2022/05/12 01:16:56;;;;;;;2.78;1.30;;;11.40;99.90;;;;;;5124109;28;20043;-63
2022/05/12 01:19:31;;;;;;;3.90;1.30;;;11.30;99.90;;;;;;5129720;28;20046;-62
2022/05/12 01:21:57;;;;;;;6.30;1.33;;;11.30;99.90;;;;;;5095328;28;20043;-63
2022/05/12 01:24:30;;;;;;;4.05;1.42;;;11.30;99.90;;;;;;5129240;28;20050;-63
2022/05/12 01:26:56;;;;;;;5.53;1.50;;;11.30;99.90;;;;;;5125375;28;20038;-62
2022/05/12 01:29:21;;;;;;;4.40;1.45;;;11.30;99.90;;;;;;5124617;27;20047;-63
2022/05/12 01:31:47;;;;;;;6.40;1.35;;;11.30;99.90;;;;;;5132223;27;20035;-63
2022/05/12 01:34:13;;;;;;;6.40;2.17;;;11.30;99.90;;;;;;5132944;27;20024;-63
2022/05/12 01:36:40;;;;;;;7.03;2.15;;;11.40;99.90;;;;;;5128665;27;20034;-63
2022/05/12 01:39:07;;;;;;;6.47;1.90;;;11.40;99.90;;;;;;5133628;27;20079;-62
2022/05/12 01:41:34;;;;;;;7.97;1.75;;;11.40;99.90;;;;;;5116512;27;20118;-63
2022/05/12 01:44:01;;;;;;;7.55;1.60;;;11.50;99.90;;;;;;5135030;27;20035;-64
2022/05/12 01:46:27;;;;;;;11.35;1.90;;;11.40;99.90;;;;;;5127212;27;20031;-63
2022/05/12 01:48:53;;;;;;;8.07;2.38;;;11.40;99.90;;;;;;5113766;27;20077;-63
2022/05/12 01:51:19;;;;;;;11.18;2.20;;;11.30;99.90;;;;;;5133437;27;20056;-62
2022/05/12 01:53:44;;;;;;;12.27;2.10;;;11.30;99.90;;;;;;5133018;27;20039;-63
2022/05/12 01:56:10;;;;;;;10.55;2.50;;;11.30;99.90;;;;;;5116801;27;20502;-63
2022/05/12 01:58:38;;;;;;;9.27;1.60;;;11.30;99.90;;;;;;5135915;27;20114;-62
2022/05/12 02:01:04;;;;;;;8.90;1.70;;;11.40;99.90;;;;;;5132470;27;20467;-63
2022/05/12 02:03:29;;;;;;;10.95;1.95;;;11.30;99.90;;;;;;5132543;27;20037;-64
2022/05/12 02:05:55;;;;;;;8.55;2.15;;;11.30;99.90;;;;;;5131477;27;20043;-64
2022/05/12 02:08:21;;;;;;;9.13;1.90;;;11.40;99.90;;;;;;5131663;27;20051;-62
2022/05/12 02:10:49;;;;;;;9.65;2.30;;;11.30;99.90;;;;;;5132485;27;20114;-62
2022/05/12 02:13:17;;;;;;;8.95;2.10;;;11.30;99.90;;;;;;5132120;27;20039;-63
2022/05/12 02:15:43;;;;;;;9.48;2.78;;;11.30;99.90;;;;;;5131747;27;20520;-63
2022/05/12 02:18:10;;;;;;;6.65;2.03;;;11.30;99.90;;;;;;5132065;27;20110;-62
2022/05/12 02:20:36;;;;;;;12.38;2.22;;;11.20;99.90;;;;;;5132653;27;20042;-63
2022/05/12 02:23:02;;;;;;;10.95;2.33;;;11.20;99.90;;;;;;5132359;27;20047;-62
2022/05/12 02:25:27;;;;;;;10.85;2.13;;;11.10;99.90;;;;;;5134551;27;20035;-63
2022/05/12 02:27:55;;;;;;;11.35;2.40;;;11.10;99.90;;;;;;5129829;27;20038;-63
2022/05/12 02:30:29;;;;;;;13.02;2.78;;;11.10;99.90;;;;;;5132432;27;20039;-63
2022/05/12 02:32:55;;;;;;;;;;;11.10;99.90;;;;;;5130960;27;20046;-63
2022/05/12 02:35:22;;;;;;;10.63;2.75;;;11.10;99.90;;;;;;5132434;27;20560;-62
2022/05/12 02:37:48;;;;;;;9.40;2.45;;;11.00;99.90;;;;;;5127634;27;20031;-62
2022/05/12 02:40:16;;;;;;;11.43;2.88;;;11.00;99.90;;;;;;5132279;27;20467;-63
2022/05/12 02:42:42;;;;;;;10.32;2.67;;;11.00;99.90;;;;;;5131266;27;20467;-62
2022/05/12 02:45:08;;;;;;;12.20;3.25;;;11.00;99.90;;;;;;5132300;27;20035;-62
2022/05/12 02:47:34;;;;;;;11.32;2.72;;;11.00;99.90;;;;;;5130547;27;20038;-62
2022/05/12 02:49:59;;;;;;;8.07;2.90;;;11.00;99.90;;;;;;5132024;27;20032;-62
2022/05/12 02:52:25;;;;;;;8.45;2.42;;;11.00;99.90;;;;;;5131173;27;20110;-62
2022/05/12 02:54:51;;;;;;;9.15;2.75;;;10.90;99.90;;;;;;5133224;27;20047;-63
2022/05/12 02:57:17;;;;;;;7.75;2.28;;;10.90;99.90;;;;;;5132176;27;20352;-63
2022/05/12 02:59:42;;;;;;;6.90;2.10;;;10.90;99.90;;;;;;5113771;27;20097;-63
2022/05/12 03:02:09;;;;;;;8.00;1.98;;;10.90;99.90;;;;;;5131828;27;20347;-63
2022/05/12 03:04:35;;;;;;;8.32;2.28;;;10.80;99.90;;;;;;5131250;27;20077;-62
2022/05/12 03:07:00;;;;;;;9.18;2.65;;;10.80;99.90;;;;;;5130262;27;20055;-62
2022/05/12 03:09:26;;;;;;;7.80;2.40;;;10.70;99.90;;;;;;5133465;27;20048;-63
2022/05/12 03:11:52;;;;;;;11.65;2.80;;;10.70;99.90;;;;;;5132953;27;20046;-63
2022/05/12 03:14:17;;;;;;;9.63;2.60;;;10.60;99.90;;;;;;5131534;27;20466;-62
2022/05/12 03:16:43;;;;;;;11.20;2.90;;;10.60;99.90;;;;;;5130974;27;20447;-62
2022/05/12 03:19:10;;;;;;;9.13;2.60;;;10.60;99.90;;;;;;5132111;27;20067;-63
2022/05/12 03:21:36;;;;;;;9.10;3.20;;;10.60;99.90;;;;;;5131954;27;20135;-63
2022/05/12 03:24:04;;;;;;;10.13;3.10;;;10.60;99.90;;;;;;5131452;27;20092;-63
2022/05/12 03:26:30;;;;;;;10.32;2.63;;;10.60;99.90;;;;;;5109864;27;20467;-63
2022/05/12 03:28:55;;;;;;;8.55;2.90;;;10.50;99.90;;;;;;5131726;27;20104;-63
2022/05/12 03:31:21;;;;;;;9.15;3.47;;;10.40;99.90;;;;;;5113583;27;20424;-62
2022/05/12 03:33:47;;;;;;;8.38;2.85;;;10.40;99.90;;;;;;5128157;27;20482;-62
2022/05/12 03:36:15;;;;;;;7.60;2.97;;;10.40;99.90;;;;;;5130225;27;20122;-63
2022/05/12 03:38:42;;;;;;;11.30;2.90;;;10.30;99.90;;;;;;5131212;27;20047;-63
2022/05/12 03:41:07;;;;;;;9.77;3.33;;;10.30;99.90;;;;;;5128851;27;20106;-62
2022/05/12 03:46:17;;;;;;;12.63;3.30;;;10.20;99.90;;;;;;5127000;27;20054;-62
2022/05/12 03:48:43;;;;;;;10.00;3.30;;;10.10;99.90;;;;;;5130698;27;20027;-63
2022/05/12 03:51:09;;;;;;;8.27;3.05;;;10.10;99.90;;;;;;5113015;27;20066;-63
2022/05/12 03:53:36;;;;;;;10.23;3.83;;;10.00;99.90;;;;;;5129986;27;20096;-63
2022/05/12 03:56:03;;;;;;;9.68;3.33;;;9.90;99.90;;;;;;5129761;27;20035;-62
2022/05/12 03:58:29;;;;;;;9.60;3.88;;;9.90;99.90;;;;;;5112540;27;20043;-62
2022/05/12 04:00:54;;;;;;;11.52;3.95;;;9.90;99.90;;;;;;5130600;27;20035;-63
2022/05/12 04:03:20;;;;;;;11.00;3.80;;;10.00;99.90;;;;;;5130225;27;20041;-62
2022/05/12 04:05:47;;;;;;;9.57;3.90;;;10.00;99.90;;;;;;5130289;27;20032;-63
2022/05/12 04:08:13;;;;;;;11.65;4.50;;;10.00;99.90;;;;;;5127555;27;20107;-63
2022/05/12 04:10:38;;;;;;;13.15;4.57;;;10.00;99.90;;;;;;5132103;27;20043;-62
2022/05/12 04:13:05;;;;;;;8.65;4.25;;;10.00;99.90;;;;;;5129867;27;20355;-62
2022/05/12 04:15:30;;;;;;;11.18;4.82;;;10.10;99.90;;;;;;5130375;27;20340;-62
2022/05/12 04:17:59;;;;;;;11.85;5.40;;;10.10;99.90;;;;;;5129497;27;20093;-62
2022/05/12 04:20:27;;;;;;;11.93;5.78;;;10.10;99.90;;;;;;5130807;27;20398;-65
2022/05/12 04:22:53;;;;;;;11.35;5.85;;;10.20;99.90;;;;;;5131166;27;20081;-63
2022/05/12 04:25:19;;;;;;;10.35;5.10;;;10.20;99.90;;;;;;5132371;27;20039;-63
2022/05/12 04:27:45;;;;;;;9.52;5.68;;;10.30;99.90;;;;;;5126905;27;20099;-62
2022/05/12 04:30:12;;;;;;;12.95;5.90;;;10.30;99.90;;;;;;5130553;27;20031;-63
2022/05/12 04:32:38;;;;;;;14.38;6.22;;;10.30;99.90;;;;;;5130287;27;20047;-63
2022/05/12 04:35:15;;;;;;;12.38;5.97;;;10.40;99.90;;;;;;5130139;27;20423;-62
2022/05/12 04:37:45;;;;;;;12.60;5.93;;;10.40;99.90;;;;;;5129716;27;20039;-63
2022/05/12 04:40:24;;;;;;;10.05;5.80;;;10.50;99.90;;;;;;5129482;27;20471;-63
2022/05/12 04:42:51;;;;;;;12.10;5.95;;;10.50;99.90;;;;;;5111357;27;20042;-62
2022/05/12 04:45:19;;;;;;;11.45;5.65;;;10.40;99.90;;;;;;5131430;27;20109;-63
2022/05/12 04:47:45;;;;;;;11.43;5.95;;;10.40;99.90;;;;;;5108011;27;20046;-62
2022/05/12 04:50:15;;;;;;;12.70;5.57;;;10.40;99.90;;;;;;5129800;27;20031;-63
2022/05/12 04:52:41;;;;;;;11.30;5.00;;;10.50;99.90;;;;;;5129948;27;20087;-63
2022/05/12 04:55:07;;;;;;;14.38;5.78;;;10.70;99.90;;;;;;5091689;28;20103;-63
2022/05/12 04:57:42;;;;;;;10.07;4.95;;;11.00;99.90;;;;;;5128815;27;20468;-63
2022/05/12 05:00:13;;;;;;;8.13;4.95;;;11.40;99.90;;;;;;5132629;27;20035;-63
2022/05/12 05:02:39;;;;;;;11.30;4.75;;;12.00;99.90;;;;;;5095447;27;20115;-63
2022/05/12 05:05:06;;;;;;;10.20;4.50;;;12.60;99.90;;;;;;5131729;27;20051;-62
2022/05/12 05:07:32;;;;;;;10.52;4.18;;;13.20;99.90;;;;;;5125437;27;20235;-63
2022/05/12 05:09:58;;;;;;;13.13;4.93;;;13.80;99.90;;;;;;5124610;28;20047;-63
2022/05/12 05:12:24;;;;;;;10.95;4.53;;;14.20;99.90;;;;;;5118378;28;20081;-63
2022/05/12 05:14:49;;;;;;;10.70;4.53;;;14.60;99.90;;;;;;5115788;28;20356;-63
2022/05/12 05:17:15;;;;;;;10.00;5.07;;;15.00;99.90;;;;;;5092247;28;20079;-63
2022/05/12 05:19:41;;;;;;;12.65;5.22;;;15.30;99.90;;;;;;5095043;28;20044;-63
2022/05/12 05:22:07;;;;;;;11.27;5.45;;;15.60;99.90;;;;;;5130340;28;20030;-63
2022/05/12 05:24:34;;;;;;;12.40;5.07;;;15.60;99.90;;;;;;5125226;28;20118;-63
2022/05/12 05:27:00;;;;;;;15.23;5.20;;;16.10;99.90;;;;;;5112336;28;20100;-63
2022/05/12 05:29:26;;;;;;;12.13;5.22;;;16.50;99.90;;;;;;5129584;28;20461;-63
2022/05/12 05:31:51;;;;;;;11.90;4.63;;;16.90;99.90;;;;;;5129731;28;20114;-63
2022/05/12 05:34:17;;;;;;;13.88;5.30;;;17.30;99.90;;;;;;5129645;28;20032;-62
2022/05/12 05:36:44;;;;;;;13.70;5.25;;;17.70;99.90;;;;;;5129565;28;20032;-63
2022/05/12 05:39:25;;;;;;;9.77;5.00;;;17.90;99.90;;;;;;5129434;28;20039;-64
2022/05/12 05:41:53;;;;;;;9.65;4.65;;;18.40;99.90;;;;;;5129591;28;20142;-64
2022/05/12 05:44:19;;;;;;;10.73;4.90;;;18.80;99.90;;;;;;5130712;28;20043;-64
2022/05/12 05:46:44;;;;;;;11.90;5.10;;;19.00;99.90;;;;;;5111478;28;20066;-64
2022/05/12 05:49:10;;;;;;;9.50;4.40;;;19.00;99.90;;;;;;5129121;28;20467;-64
2022/05/12 05:54:20;;;;;;;9.50;4.30;;;19.10;99.90;;;;;;5123170;28;20071;-63
2022/05/12 05:56:47;;;;;;;12.27;4.47;;;19.20;99.90;;;;;;5129903;28;20507;-64
2022/05/12 05:59:14;;;;;;;12.15;4.30;;;19.20;99.90;;;;;;5111218;28;20035;-63
2022/05/12 06:01:39;;;;;;;10.25;4.10;;;19.50;99.90;;;;;;5129244;28;20055;-65
2022/05/12 06:04:06;;;;;;;9.10;3.83;;;19.60;99.90;;;;;;5127865;28;20473;-68
2022/05/12 06:06:32;;;;;;;11.15;4.50;;;20.00;99.90;;;;;;5106348;28;20463;-63
2022/05/12 06:08:58;;;;;;;10.57;3.53;;;20.10;99.90;;;;;;5126784;28;20043;-64
2022/05/12 06:11:23;;;;;;;8.55;3.80;;;20.20;99.90;;;;;;5128772;28;20046;-63
2022/05/12 06:13:49;;;;;;;13.75;4.55;;;20.50;99.90;;;;;;5128822;28;20355;-64
2022/05/12 06:16:16;;;;;;;9.30;4.00;;;20.50;99.90;;;;;;5128870;27;20042;-64
2022/05/12 06:18:42;;;;;;;11.38;3.97;;;20.40;99.90;;;;;;5133206;27;20047;-64
2022/05/12 06:21:11;;;;;;;9.55;3.25;;;20.10;99.90;;;;;;5114763;27;20104;-63
2022/05/12 06:23:37;;;;;;;11.65;3.45;;;19.60;99.90;;;;;;5132963;27;20087;-64
2022/05/12 06:26:06;;;;;;;15.32;3.42;;;19.50;99.90;;;;;;5132074;27;20035;-64
2022/05/12 06:28:31;;;;;;;7.38;3.00;;;19.80;99.90;;;;;;5098281;27;20535;-63
2022/05/12 06:30:57;;;;;;;11.20;3.10;;;19.50;99.90;;;;;;5133050;27;20031;-62
2022/05/12 06:33:23;;;;;;;13.35;3.53;;;19.40;99.90;;;;;;5127913;27;20034;-63
2022/05/12 06:35:49;;;;;;;9.75;3.33;;;19.60;99.90;;;;;;5129975;27;20363;-63
2022/05/12 06:38:14;;;;;;;8.60;3.28;;;19.80;99.90;;;;;;5128705;27;20039;-62
2022/05/12 06:40:41;;;;;;;9.63;2.90;;;19.60;99.90;;;;;;5132625;27;20260;-63
2022/05/12 06:43:08;;;;;;;10.88;2.78;;;19.50;99.90;;;;;;5129987;27;20066;-63
2022/05/12 06:45:34;;;;;;;7.95;2.58;;;19.80;99.90;;;;;;5132849;27;20379;-63
2022/05/12 06:48:01;;;;;;;11.15;3.05;;;20.00;99.90;;;;;;5109677;27;20030;-63
2022/05/12 06:50:29;;;;;;;11.70;3.40;;;19.80;99.90;;;;;;5130623;27;20103;-63
2022/05/12 06:52:55;;;;;;;7.30;2.90;;;19.70;99.90;;;;;;5132540;27;20119;-62
2022/05/12 06:55:23;;;;;;;10.20;3.08;;;19.80;99.90;;;;;;5113948;27;20117;-63
2022/05/12 06:57:48;;;;;;;8.15;2.75;;;20.00;99.90;;;;;;5125878;27;20027;-63
2022/05/12 07:00:16;;;;;;;10.70;2.90;;;20.20;99.90;;;;;;5134997;27;20050;-63
2022/05/12 07:02:44;;;;;;;7.88;2.58;;;19.80;99.90;;;;;;5132253;27;20043;-63
2022/05/12 07:05:11;;;;;;;9.23;2.88;;;19.80;99.90;;;;;;5112050;27;20046;-62
2022/05/12 07:07:37;;;;;;;8.75;2.20;;;19.50;99.90;;;;;;5132533;27;20038;-63
2022/05/12 07:10:04;;;;;;;9.73;2.00;;;19.50;99.90;;;;;;5113087;27;20460;-63
2022/05/12 07:12:30;;;;;;;9.57;2.45;;;19.20;99.90;;;;;;5132172;27;20042;-62
2022/05/12 07:14:56;;;;;;;10.27;2.33;;;18.50;99.90;;;;;;5132048;27;20035;-63
2022/05/12 07:17:22;;;;;;;7.97;2.17;;;18.20;99.90;;;;;;5131802;27;20120;-63
2022/05/12 07:19:49;;;;;;;8.05;2.40;;;17.70;99.90;;;;;;5131790;27;20114;-62
2022/05/12 07:27:43;;;;;;;;;;;17.20;99.90;;;;;;5129372;27;20036;-62
2022/05/12 07:30:10;;;;;;;7.78;2.45;;;17.30;99.90;;;;;;5131466;27;19927;-62
2022/05/12 07:32:37;;;;;;;11.50;2.45;;;17.20;99.90;;;;;;5131089;27;20043;-63
2022/05/12 07:35:07;;;;;;;10.48;2.33;;;16.90;99.90;;;;;;5130900;27;20443;-63
2022/05/12 07:37:33;;;;;;;11.43;2.70;;;16.90;99.90;;;;;;5126719;27;20035;-63
2022/05/12 07:39:58;;;;;;;10.68;2.78;;;17.10;99.90;;;;;;5130876;27;20047;-62
2022/05/12 07:42:24;;;;;;;8.35;2.70;;;17.10;99.90;;;;;;5130538;27;20213;-63
2022/05/12 07:44:49;;;;;;;9.30;2.78;;;17.30;99.90;;;;;;5130650;27;20368;-62
2022/05/12 07:47:15;;;;;;;12.75;3.05;;;17.20;99.90;;;;;;5130831;27;20042;-63
2022/05/12 07:49:42;;;;;;;7.43;2.30;;;17.20;99.90;;;;;;5130751;27;20114;-63
2022/05/12 07:52:10;;;;;;;12.30;3.40;;;17.40;99.90;;;;;;5130398;27;20038;-62
2022/05/12 07:54:36;;;;;;;11.02;2.78;;;17.50;99.90;;;;;;5132226;27;20046;-63
2022/05/12 07:57:02;;;;;;;12.57;3.13;;;17.40;99.90;;;;;;5126269;27;20035;-62
2022/05/12 07:59:29;;;;;;;9.20;2.63;;;17.20;99.90;;;;;;5130530;27;20055;-63
2022/05/12 08:01:56;;;;;;;13.38;3.20;;;17.30;99.90;;;;;;5115745;27;20096;-63
2022/05/12 08:04:21;;;;;;;13.60;3.28;;;17.40;99.90;;;;;;5131359;27;20039;-63
2022/05/12 08:06:47;;;;;;;8.68;2.75;;;17.20;99.90;;;;;;5110810;28;20349;-62
2022/05/12 08:09:14;;;;;;;12.52;2.95;;;17.00;99.90;;;;;;5113434;27;20058;-63
2022/05/12 08:11:40;;;;;;;12.13;2.90;;;16.70;99.90;;;;;;5127787;27;20055;-63
2022/05/12 08:14:06;;;;;;;13.50;3.20;;;16.80;99.90;;;;;;5130632;27;20392;-63
2022/05/12 08:16:32;;;;;;;11.05;2.45;;;16.70;99.90;;;;;;5130175;27;20027;-64
2022/05/12 08:18:58;;;;;;;12.63;3.40;;;16.50;99.90;;;;;;5129838;27;20751;-63
2022/05/12 08:21:23;;;;;;;7.70;2.45;;;16.40;99.90;;;;;;5124916;27;20046;-63
2022/05/12 08:23:50;;;;;;;10.10;3.10;;;16.30;99.90;;;;;;5130033;27;20035;-62
2022/05/12 08:26:16;;;;;;;10.88;2.90;;;16.30;99.90;;;;;;5130087;27;20047;-62
2022/05/12 08:28:42;;;;;;;11.18;3.03;;;16.30;99.90;;;;;;5130312;27;20035;-63
2022/05/12 08:31:09;;;;;;;11.05;2.90;;;16.30;99.90;;;;;;5126601;27;20316;-62
2022/05/12 08:33:34;;;;;;;8.93;2.60;;;16.40;99.90;;;;;;5130308;27;20035;-63
2022/05/12 08:36:00;;;;;;;5.72;2.45;;;16.40;99.90;;;;;;5130120;27;20032;-63
2022/05/12 08:38:26;;;;;;;8.65;2.65;;;16.30;99.90;;;;;;5131805;27;20114;-62
2022/05/12 08:41:04;;;;;;;9.98;2.90;;;16.30;99.90;;;;;;5128277;27;20119;-63
2022/05/12 08:43:44;;;;;;;13.88;4.15;;;16.20;99.90;;;;;;5128510;27;20035;-62
2022/05/12 08:46:15;;;;;;;10.10;3.10;;;16.20;99.90;;;;;;5128094;27;20035;-62
2022/05/12 08:48:44;;;;;;;10.80;2.92;;;16.30;99.90;;;;;;5130165;27;20058;-62
2022/05/12 08:51:17;;;;;;;9.18;3.45;;;16.40;99.90;;;;;;5126331;27;20156;-62
2022/05/12 08:53:57;;;;;;;11.65;3.20;;;16.40;99.90;;;;;;5111995;27;20362;-62
2022/05/12 08:56:24;;;;;;;8.80;3.40;;;16.50;99.90;;;;;;5129650;27;20041;-63
2022/05/12 08:58:55;;;;;;;11.75;2.80;;;16.40;99.90;;;;;;5129683;27;20717;-63
2022/05/12 09:01:44;;;;;;;9.32;2.47;;;16.40;99.90;;;;;;5128920;27;20483;-64
2022/05/12 09:04:30;;;;;;;9.50;2.10;;;16.50;99.90;;;;;;5127846;27;20042;-63
2022/05/12 09:07:05;;;;;;;4.75;1.90;;;16.60;99.90;;;;;;5128467;27;20035;-63
2022/05/12 09:10:01;;;;;;;9.23;2.55;;;16.60;99.90;;;;;;5124898;27;21271;-63
2022/05/12 09:12:51;;;;;;;9.20;2.17;;;16.70;99.90;;;;;;5127595;28;20066;-63
2022/05/12 09:15:26;;;;;;;5.72;2.15;;;16.90;99.90;;;;;;5131177;28;20058;-63
2022/05/12 09:17:57;;;;;;;8.93;2.00;;;16.80;99.90;;;;;;5127818;28;20041;-63
2022/05/12 09:20:24;;;;;;;6.03;2.05;;;16.70;99.90;;;;;;5131688;28;20067;-62
2022/05/12 09:22:50;;;;;;;10.30;2.40;;;16.80;99.90;;;;;;5128976;28;20042;-62
2022/05/12 09:25:33;;;;;;;8.93;2.00;;;16.90;99.90;;;;;;5129361;28;20039;-63
2022/05/12 09:28:27;;;;;;;8.10;1.98;;;17.00;99.90;;;;;;5128851;28;20445;-62
2022/05/12 09:30:55;;;;;;;6.80;1.90;;;17.00;99.90;;;;;;5125014;28;20047;-63
2022/05/12 09:33:29;;;;;;;7.78;1.90;;;16.80;99.90;;;;;;5129262;28;20542;-63
2022/05/12 09:36:07;;;;;;;7.55;1.88;;;16.80;99.90;;;;;;5129360;28;20039;-63
2022/05/12 09:38:45;;;;;;;7.00;1.70;;;16.80;99.90;;;;;;5128963;28;20027;-63
2022/05/12 09:41:22;;;;;;;10.23;2.22;;;16.80;99.90;;;;;;5124843;28;20032;-62
2022/05/12 09:43:53;;;;;;;7.40;2.35;;;16.80;99.90;;;;;;5128543;28;20031;-62
2022/05/12 09:46:29;;;;;;;8.68;1.70;;;16.90;99.90;;;;;;5130700;28;20050;-62
2022/05/12 09:49:15;;;;;;;8.32;1.85;;;16.70;99.90;;;;;;5130688;28;20031;-63
2022/05/12 09:51:41;;;;;;;5.82;1.75;;;16.80;99.90;;;;;;5129766;27;20041;-62
2022/05/12 09:54:20;;;;;;;5.57;1.63;;;16.90;99.90;;;;;;5133958;27;20031;-62
2022/05/12 09:56:59;;;;;;;7.97;1.95;;;17.10;99.90;;;;;;5130489;27;20426;-62
2022/05/12 09:59:28;;;;;;;4.78;1.55;;;17.10;99.90;;;;;;5129873;27;20083;-64
2022/05/12 10:02:06;;;;;;;5.05;2.00;;;17.20;99.90;;;;;;5133447;27;20035;-64
2022/05/12 10:10:30;;;;;;;5.15;1.63;;;17.30;99.90;;;;;;5127680;27;20051;-62
2022/05/12 10:13:13;;;;;;;7.22;2.00;;;17.30;99.90;;;;;;5132070;27;20463;-63
2022/05/12 10:15:41;;;;;;;6.20;1.70;;;17.20;99.90;;;;;;5132183;27;20090;-62
2022/05/12 10:18:25;;;;;;;7.30;2.00;;;17.40;99.90;;;;;;5133066;27;20134;-63
2022/05/12 10:20:53;;;;;;;9.95;2.45;;;17.60;99.90;;;;;;5128447;27;20699;-63
2022/05/12 10:23:43;;;;;;;4.53;2.03;;;17.40;99.90;;;;;;5132658;27;20043;-63
2022/05/12 10:26:14;;;;;;;9.38;2.40;;;17.50;99.90;;;;;;5130307;27;20067;-63
2022/05/12 10:28:55;;;;;;;9.13;2.20;;;17.60;99.90;;;;;;5132280;27;20035;-63
2022/05/12 10:31:52;;;;;;;5.30;1.85;;;17.80;99.90;;;;;;5129283;27;20042;-64
2022/05/12 10:34:48;;;;;;;3.60;1.70;;;17.80;99.90;;;;;;5131437;27;20069;-62
2022/05/12 10:37:42;;;;;;;4.82;1.70;;;17.80;99.90;;;;;;5132018;27;20451;-63
2022/05/12 10:41:03;;;;;;;4.85;1.88;;;18.00;99.90;;;;;;5124636;27;20050;-64
2022/05/12 10:43:59;;;;;;;8.43;2.13;;;18.00;99.90;;;;;;5130324;27;20046;-63
2022/05/12 10:46:44;;;;;;;7.63;2.58;;;18.00;99.90;;;;;;5131261;27;20080;-64
2022/05/12 10:49:37;;;;;;;5.60;2.08;;;17.90;99.90;;;;;;5131713;27;20421;-64
2022/05/12 10:52:15;;;;;;;4.85;1.85;;;17.90;99.90;;;;;;5113978;27;20039;-64
2022/05/12 10:55:01;;;;;;;6.03;1.90;;;18.10;99.90;;;;;;5131447;27;20359;-64
2022/05/12 10:57:58;;;;;;;7.00;2.42;;;18.50;99.50;;;;;;5129044;27;20162;-63
2022/05/12 11:00:39;;;;;;;5.60;1.80;;;18.40;99.40;;;;;;5126951;27;20112;-63
2022/05/12 11:03:13;;;;;;;4.55;1.98;;;18.50;99.30;;;;;;5133811;27;20039;-63
2022/05/12 11:05:46;;;;;;;6.40;2.00;;;18.60;99.10;;;;;;5133832;27;20046;-63
2022/05/12 11:08:18;;;;;;;5.40;1.70;;;18.50;99.10;;;;;;5133746;27;20447;-65
2022/05/12 11:10:56;;;;;;;9.27;1.77;;;18.50;98.40;;;;;;5129658;27;20128;-63
2022/05/12 11:13:29;;;;;;;4.00;1.63;;;18.40;98.40;;;;;;5132032;27;20049;-63
2022/05/12 11:15:59;;;;;;;6.73;1.50;;;18.30;98.20;;;;;;5132286;27;20110;-64
2022/05/12 11:18:41;;;;;;;5.57;1.50;;;18.40;98.40;;;;;;5111666;27;20352;-64
2022/05/12 11:21:17;;;;;;;7.95;2.10;;;18.20;97.60;;;;;;5129528;27;20460;-63
2022/05/12 11:24:05;;;;;;;6.03;1.60;;;18.20;98.50;;;;;;5114284;27;20054;-64
2022/05/12 11:27:00;;;;;;;7.28;1.83;;;17.90;98.20;;;;;;5131032;27;20031;-63
2022/05/12 11:29:44;;;;;;;6.10;1.63;;;18.10;98.80;;;;;;5112624;27;20131;-64
2022/05/12 11:32:16;;;;;;;8.40;1.40;;;18.10;98.60;;;;;;5129604;27;20081;-64
2022/05/12 11:34:47;;;;;;;5.43;1.10;;;18.30;98.90;;;;;;5131930;27;20035;-62
2022/05/12 11:37:25;;;;;;;4.32;1.48;;;18.30;97.10;;;;;;5130940;27;20038;-62
2022/05/12 11:39:54;;;;;;;5.80;1.40;;;18.20;96.70;;;;;;5126938;27;20081;-61
2022/05/12 11:42:21;;;;;;;3.58;1.15;;;18.30;96.90;;;;;;5128095;27;20142;-61
2022/05/12 11:44:55;;;;;;;3.30;1.20;;;18.30;96.70;;;;;;5131113;27;20075;-61
2022/05/12 11:47:55;;;;;;;2.80;1.20;;;18.30;96.70;;;;;;5130914;27;20131;-62
2022/05/12 11:50:35;;;;;;;5.30;1.20;;;18.20;96.90;;;;;;5129605;27;20043;-62
2022/05/12 11:53:46;;;;;;;5.70;1.35;;;18.30;97.20;;;;;;5131064;27;20035;-62
2022/05/12 11:56:12;;;;;;;5.75;1.65;;;18.10;96.90;;;;;;5128820;27;20046;-64
2022/05/12 11:58:47;;;;;;;3.00;1.23;;;18.20;96.80;;;;;;5130788;27;20477;-62
2022/05/12 12:01:39;;;;;;;7.55;1.60;;;18.10;97.00;;;;;;5127497;27;20095;-63
2022/05/12 12:04:05;;;;;;;7.40;1.65;;;18.40;97.70;;;;;;5127718;27;20119;-62
2022/05/12 12:06:51;;;;;;;7.32;1.83;;;18.80;96.90;;;;;;5127947;27;20431;-62
2022/05/12 12:09:35;;;;;;;8.23;1.85;;;19.10;96.40;;;;;;5128860;27;20085;-62
2022/05/12 12:12:06;;;;;;;6.28;1.58;;;19.20;96.20;;;;;;5129821;27;20039;-63
2022/05/12 12:14:56;;;;;;;6.32;1.50;;;19.30;96.10;;;;;;5126519;27;20027;-63
2022/05/12 12:17:25;;;;;;;5.30;1.88;;;19.40;95.10;;;;;;5130598;27;20031;-62
2022/05/12 12:19:53;;;;;;;5.28;1.77;;;19.50;95.00;;;;;;5125166;27;20080;-62
2022/05/12 12:22:36;;;;;;;4.50;1.73;;;19.70;95.30;;;;;;5129791;27;20058;-62
2022/05/12 12:25:19;;;;;;;5.47;1.70;;;19.70;95.50;;;;;;5127713;27;20058;-62
2022/05/12 12:27:54;;;;;;;7.30;2.65;;;19.90;94.80;;;;;;5127614;27;20027;-62
2022/05/12 12:30:34;;;;;;;7.10;2.10;;;19.60;94.00;;;;;;5128221;27;20039;-62
2022/05/12 12:33:09;;;;;;;6.72;1.85;;;19.50;95.00;;;;;;5129341;27;20480;-62
2022/05/12 12:35:55;;;;;;;6.75;1.58;;;19.60;95.00;;;;;;5129258;27;20352;-62
2022/05/12 12:38:57;;;;;;;5.13;1.70;;;19.50;95.10;;;;;;5129883;27;20036;-62
2022/05/12 12:41:31;;;;;;;4.05;1.70;;;19.50;95.40;;;;;;5045948;28;20036;-62
2022/05/12 12:44:04;;;;;;;4.95;1.63;;;19.30;95.60;;;;;;5116800;27;20162;-62
2022/05/12 12:46:55;;;;;;;5.78;1.35;;;19.30;95.40;;;;;;5128932;27;20424;-63
2022/05/12 12:49:29;;;;;;;5.43;2.17;;;19.50;95.50;;;;;;5111648;27;20089;-62
2022/05/12 12:52:05;;;;;;;7.07;1.85;;;19.60;95.40;;;;;;5126862;27;20118;-63
2022/05/12 12:57:25;;;;;;;8.35;1.88;;;19.70;94.60;;;;;;5128358;27;20039;-63
2022/05/12 12:59:59;;;;;;;8.43;2.10;;;19.70;94.60;;;;;;5127190;27;20035;-63
2022/05/12 13:02:33;;;;;;;4.47;1.70;;;19.90;94.20;;;;;;5110691;27;20074;-63
2022/05/12 13:05:04;;;;;;;4.45;1.35;;;19.80;94.30;;;;;;5131503;27;20103;-62
2022/05/12 13:07:32;;;;;;;4.22;1.67;;;20.00;94.60;;;;;;5129672;27;20118;-62
2022/05/12 13:10:00;;;;;;;7.22;1.85;;;19.80;94.00;;;;;;5125582;27;20052;-63
2022/05/12 13:12:27;;;;;;;5.18;1.55;;;19.80;94.10;;;;;;5127506;27;20058;-62
2022/05/12 13:14:56;;;;;;;7.15;2.38;;;19.70;94.00;;;;;;5129397;28;20041;-63
2022/05/12 13:17:25;;;;;;;7.18;1.63;;;19.80;94.20;;;;;;5125840;28;20092;-63
2022/05/12 13:19:52;;;;;;;4.20;1.17;;;19.60;94.00;;;;;;5125854;28;20503;-62
2022/05/12 13:22:23;;;;;;;5.75;1.63;;;19.60;93.80;;;;;;5128859;28;20417;-63